Strona główna
METAR-TAF:

METAR-TAF

Lotnisko :

Hartness State Airport

Springfield, Vermont, Stany Zjednoczone

Szerokość geograficzna: 43-20-33N, Długość geograficzna: 072-31-18W, wysokość: 175 m

Aktualna obserwacja pogody

Raport powstał 10 minut temu, godzina 11:01 UTC
Cisza
Temperatura 16°C
Wilgotność 100%
Ciśnienie 1017 hPa
Widzialność: 16.1 km
Przerywane chmury na wysokości 300 ft

METAR: KVSF 191101Z AUTO 00000KT 10SM BKN003 16/16 A3004 RMK AO2 T01610161

czas: 07:11 (11:11 UTC)


TAF: brakujący

Obserwacja i prognoza pogody dla ponad 4000 lotnisk (raport METAR i TAF).

Dostępne stacje oznaczono żółtymi i czerwonymi punktami na mapie.

Najedź kursorem aby zobaczyć nazwę stacji.

Kliknij aby zobaczyć obserwacje i prognozy pogody.

Aby zmienić mapę: kliknij na zielony przycisk z czarnym krzyżykiem, aby powiększyć; na zielony przycisk z myślnikiem, aby pomniejszyć; na zielone strzałki, aby przejść do map sąsiednich.


METAR-TAF: